Time;durP1;ratioP1;P1;durP2;ratioP2;P2;SDS_P1;SDS_P2;PMS_P1;PMS_P2;Temp;Humidity;BMP_temperature;BMP_pressure;BME280_temperature;BME280_humidity;BME280_pressure;Samples;Min_cycle;Max_cycle;Signal;HPM_P1;HPM_P2
2023/03/27 00:02:03;;;;;;;0.20;0.20;;;;;;;;;;5013365;28;20241;-69
2023/03/27 00:04:30;;;;;;;0.20;0.20;;;;;;;;;;5024525;28;20216;-68
2023/03/27 00:06:56;;;;;;;0.10;0.10;;;;;;;;;;5013475;28;20287;-69
2023/03/27 00:09:22;;;;;;;0.20;0.20;;;;;;;;;;5024339;28;20280;-69
2023/03/27 00:11:51;;;;;;;0.20;0.20;;;;;;;;;;5013147;28;20261;-69
2023/03/27 00:14:17;;;;;;;0.20;0.20;;;;;;;;;;5024209;28;20526;-68
2023/03/27 00:16:45;;;;;;;0.10;0.10;;;;;;;;;;5013168;28;20287;-69
2023/03/27 00:19:11;;;;;;;0.20;0.20;;;;;;;;;;5024126;28;20205;-69
2023/03/27 00:21:37;;;;;;;0.20;0.20;;;;;;;;;;5013228;28;20248;-69
2023/03/27 00:24:04;;;;;;;0.20;0.20;;;;;;;;;;5023281;28;20208;-68
2023/03/27 00:26:30;;;;;;;0.20;0.20;;;;;;;;;;5013297;28;20241;-69
2023/03/27 00:28:58;;;;;;;0.20;0.20;;;;;;;;;;5023766;28;20205;-69
2023/03/27 00:31:24;;;;;;;0.20;0.20;;;;;;;;;;5013218;28;20591;-69
2023/03/27 00:33:51;;;;;;;0.20;0.20;;;;;;;;;;5023614;28;20316;-68
2023/03/27 00:36:17;;;;;;;0.20;0.20;;;;;;;;;;5013226;28;20244;-76
2023/03/27 00:38:44;;;;;;;0.20;0.20;;;;;;;;;;5023696;28;20205;-70
2023/03/27 00:41:11;;;;;;;0.20;0.20;;;;;;;;;;5013482;28;20308;-69
2023/03/27 00:43:41;;;;;;;0.10;0.10;;;;;;;;;;5023329;28;20204;-71
2023/03/27 00:46:30;;;;;;;0.10;0.10;;;;;;;;;;5013233;28;20240;-69
2023/03/27 00:48:57;;;;;;;0.20;0.20;;;;;;;;;;5023497;28;20212;-71
2023/03/27 00:51:24;;;;;;;0.20;0.20;;;;;;;;;;5013092;28;20251;-71
2023/03/27 00:53:51;;;;;;;0.20;0.20;;;;;;;;;;5023496;28;20220;-69
2023/03/27 00:56:17;;;;;;;0.20;0.20;;;;;;;;;;5012912;28;20503;-69
2023/03/27 00:58:45;;;;;;;0.20;0.20;;;;;;;;;;5023142;28;20563;-69
2023/03/27 01:01:14;;;;;;;0.20;0.20;;;;;;;;;;5013033;28;20268;-69
2023/03/27 01:03:41;;;;;;;0.20;0.20;;;;;;;;;;5023344;28;20247;-69
2023/03/27 01:06:09;;;;;;;0.20;0.20;;;;;;;;;;5012918;28;20309;-68
2023/03/27 01:08:36;;;;;;;0.20;0.20;;;;;;;;;;5023053;28;20212;-68
2023/03/27 01:11:09;;;;;;;0.20;0.20;;;;;;;;;;5012999;28;20246;-69
2023/03/27 01:13:41;;;;;;;0.10;0.10;;;;;;;;;;5023215;28;20475;-68
2023/03/27 01:16:10;;;;;;;0.17;0.17;;;;;;;;;;5012773;28;20244;-69
2023/03/27 01:18:43;;;;;;;0.10;0.10;;;;;;;;;;5023134;28;20205;-69
2023/03/27 01:21:24;;;;;;;0.10;0.10;;;;;;;;;;5012814;28;20253;-68
2023/03/27 01:24:05;;;;;;;0.10;0.10;;;;;;;;;;5020511;28;20440;-69
2023/03/27 01:26:46;;;;;;;0.10;0.10;;;;;;;;;;5012719;28;20500;-69
2023/03/27 01:29:15;;;;;;;0.10;0.10;;;;;;;;;;5023404;28;20284;-68
2023/03/27 01:31:51;;;;;;;0.20;0.20;;;;;;;;;;5012396;28;20240;-69
2023/03/27 01:34:37;;;;;;;0.17;0.17;;;;;;;;;;5024281;28;20212;-69
2023/03/27 01:37:10;;;;;;;0.20;0.20;;;;;;;;;;5015906;28;20248;-70
2023/03/27 01:39:45;;;;;;;0.20;0.20;;;;;;;;;;5027326;28;20234;-69
2023/03/27 01:42:17;;;;;;;0.13;0.13;;;;;;;;;;5015975;28;20444;-69
2023/03/27 01:44:46;;;;;;;0.17;0.17;;;;;;;;;;5027150;28;20211;-68
2023/03/27 01:47:17;;;;;;;0.10;0.10;;;;;;;;;;5015865;28;20499;-68
2023/03/27 01:49:45;;;;;;;0.20;0.20;;;;;;;;;;5027109;28;20272;-68
2023/03/27 01:52:14;;;;;;;0.10;0.10;;;;;;;;;;5015657;28;20444;-69
2023/03/27 01:54:43;;;;;;;0.20;0.20;;;;;;;;;;5026877;28;20216;-69
2023/03/27 01:57:14;;;;;;;0.10;0.10;;;;;;;;;;5015409;28;20260;-69
2023/03/27 01:59:43;;;;;;;0.20;0.20;;;;;;;;;;5026781;28;20220;-69
2023/03/27 02:02:11;;;;;;;0.20;0.20;;;;;;;;;;5015451;28;20240;-68
2023/03/27 02:04:40;;;;;;;0.10;0.10;;;;;;;;;;5026781;28;20264;-69
2023/03/27 02:07:10;;;;;;;0.20;0.20;;;;;;;;;;5015205;28;20260;-68
2023/03/27 02:09:38;;;;;;;0.20;0.20;;;;;;;;;;5026626;28;20209;-70
2023/03/27 02:12:10;;;;;;;0.20;0.20;;;;;;;;;;5015280;28;20264;-81
2023/03/27 02:14:39;;;;;;;0.10;0.10;;;;;;;;;;5026619;28;20343;-68
2023/03/27 02:17:09;;;;;;;0.20;0.20;;;;;;;;;;5015055;28;20423;-68
2023/03/27 02:19:37;;;;;;;0.20;0.20;;;;;;;;;;5026403;28;20244;-69
2023/03/27 02:22:03;;;;;;;0.20;0.20;;;;;;;;;;5015094;28;20260;-68
2023/03/27 02:24:29;;;;;;;0.10;0.10;;;;;;;;;;5026268;28;20205;-68
2023/03/27 02:26:58;;;;;;;0.20;0.20;;;;;;;;;;5015004;28;20314;-69
2023/03/27 02:29:41;;;;;;;0.20;0.20;;;;;;;;;;5026115;28;20275;-69
2023/03/27 02:32:13;;;;;;;0.10;0.10;;;;;;;;;;5014995;28;20241;-69
2023/03/27 02:34:49;;;;;;;0.20;0.20;;;;;;;;;;5026239;28;20240;-69
2023/03/27 02:37:20;;;;;;;0.20;0.20;;;;;;;;;;5014763;28;20253;-69
2023/03/27 02:39:49;;;;;;;0.20;0.20;;;;;;;;;;5026174;28;20395;-69
2023/03/27 02:42:18;;;;;;;0.20;0.20;;;;;;;;;;5014665;28;20252;-68
2023/03/27 02:44:50;;;;;;;0.10;0.10;;;;;;;;;;5025973;28;20440;-69
2023/03/27 02:47:22;;;;;;;0.20;0.20;;;;;;;;;;5013937;28;20252;-69
2023/03/27 02:49:51;;;;;;;0.20;0.20;;;;;;;;;;5025947;28;20455;-69
2023/03/27 02:52:19;;;;;;;0.20;0.20;;;;;;;;;;5014448;28;20316;-69
2023/03/27 02:54:48;;;;;;;0.20;0.20;;;;;;;;;;5025909;28;20224;-68
2023/03/27 02:57:17;;;;;;;0.10;0.10;;;;;;;;;;5014181;28;20239;-69
2023/03/27 02:59:45;;;;;;;0.17;0.17;;;;;;;;;;5025417;28;20539;-68
2023/03/27 03:02:16;;;;;;;0.20;0.20;;;;;;;;;;5014218;28;20486;-69
2023/03/27 03:04:45;;;;;;;0.20;0.20;;;;;;;;;;5025150;28;20209;-68
2023/03/27 03:07:13;;;;;;;0.20;0.20;;;;;;;;;;5014087;28;20464;-68
2023/03/27 03:09:39;;;;;;;0.20;0.20;;;;;;;;;;5025591;28;20251;-69
2023/03/27 03:12:06;;;;;;;0.10;0.10;;;;;;;;;;5014066;28;20304;-69
2023/03/27 03:14:34;;;;;;;0.20;0.20;;;;;;;;;;5025371;28;20266;-69
2023/03/27 03:17:01;;;;;;;0.20;0.20;;;;;;;;;;5014077;28;20264;-70
2023/03/27 03:19:28;;;;;;;0.20;0.20;;;;;;;;;;5025254;28;20272;-71
2023/03/27 03:21:55;;;;;;;0.20;0.20;;;;;;;;;;5014059;28;20248;-68
2023/03/27 03:24:21;;;;;;;0.20;0.20;;;;;;;;;;5025088;28;20525;-69
2023/03/27 03:26:48;;;;;;;0.20;0.20;;;;;;;;;;5013992;28;20557;-68
2023/03/27 03:29:15;;;;;;;0.20;0.20;;;;;;;;;;5024615;28;20209;-69
2023/03/27 03:31:44;;;;;;;0.20;0.20;;;;;;;;;;5014232;28;20636;-69
2023/03/27 03:34:11;;;;;;;0.20;0.20;;;;;;;;;;5024895;28;20236;-69
2023/03/27 03:36:40;;;;;;;0.20;0.20;;;;;;;;;;5013944;28;20240;-69
2023/03/27 03:39:07;;;;;;;0.20;0.20;;;;;;;;;;5024723;28;20212;-68
2023/03/27 03:41:34;;;;;;;0.20;0.20;;;;;;;;;;5013921;28;20480;-69
2023/03/27 03:44:00;;;;;;;0.10;0.10;;;;;;;;;;5024787;28;20388;-69
2023/03/27 03:46:27;;;;;;;0.20;0.20;;;;;;;;;;5013981;28;20425;-72
2023/03/27 03:48:53;;;;;;;0.20;0.20;;;;;;;;;;5024511;28;20276;-69
2023/03/27 03:51:19;;;;;;;0.20;0.20;;;;;;;;;;5014134;28;20264;-69
2023/03/27 03:53:47;;;;;;;0.20;0.20;;;;;;;;;;5024209;28;20240;-69
2023/03/27 03:56:14;;;;;;;0.20;0.20;;;;;;;;;;5013635;28;20241;-68
2023/03/27 03:58:41;;;;;;;0.20;0.20;;;;;;;;;;5023159;28;20212;-69
2023/03/27 04:01:08;;;;;;;0.20;0.20;;;;;;;;;;5013322;28;20254;-68
2023/03/27 04:03:34;;;;;;;0.20;0.20;;;;;;;;;;5023934;28;20209;-68
2023/03/27 04:06:04;;;;;;;0.20;0.20;;;;;;;;;;5013879;28;20298;-69
2023/03/27 04:08:30;;;;;;;0.20;0.20;;;;;;;;;;5023800;28;20235;-70
2023/03/27 04:10:58;;;;;;;0.20;0.20;;;;;;;;;;5013914;28;20448;-68
2023/03/27 04:13:24;;;;;;;0.20;0.20;;;;;;;;;;5023585;28;20237;-70
2023/03/27 04:15:51;;;;;;;0.20;0.20;;;;;;;;;;5013757;28;20264;-70
2023/03/27 04:18:18;;;;;;;0.20;0.20;;;;;;;;;;5023471;28;20252;-70
2023/03/27 04:20:48;;;;;;;0.10;0.10;;;;;;;;;;5013944;28;20591;-69
2023/03/27 04:23:17;;;;;;;0.20;0.20;;;;;;;;;;5023441;28;20204;-70
2023/03/27 04:25:45;;;;;;;0.20;0.20;;;;;;;;;;5013608;28;20247;-70
2023/03/27 04:28:15;;;;;;;0.20;0.20;;;;;;;;;;5023285;28;20466;-69
2023/03/27 04:30:42;;;;;;;0.20;0.20;;;;;;;;;;5013914;28;20244;-70
2023/03/27 04:33:17;;;;;;;0.20;0.20;;;;;;;;;;5023189;28;20212;-70
2023/03/27 04:35:43;;;;;;;0.20;0.20;;;;;;;;;;5013845;28;20273;-69
2023/03/27 04:38:10;;;;;;;0.20;0.20;;;;;;;;;;5022942;28;20279;-70
2023/03/27 04:40:37;;;;;;;0.20;0.20;;;;;;;;;;5013860;28;20512;-68
2023/03/27 04:43:03;;;;;;;0.20;0.20;;;;;;;;;;5023057;28;20239;-70
2023/03/27 04:45:31;;;;;;;0.20;0.20;;;;;;;;;;5013864;28;20280;-68
2023/03/27 04:47:57;;;;;;;0.20;0.20;;;;;;;;;;5023204;28;20193;-70
2023/03/27 04:50:24;;;;;;;0.20;0.20;;;;;;;;;;5014299;28;20212;-68
2023/03/27 04:52:52;;;;;;;0.20;0.20;;;;;;;;;;5022781;28;20203;-70
2023/03/27 04:55:18;;;;;;;0.20;0.20;;;;;;;;;;5013930;28;20207;-70
2023/03/27 04:57:45;;;;;;;0.20;0.20;;;;;;;;;;5023567;28;20215;-69
2023/03/27 05:00:15;;;;;;;0.20;0.20;;;;;;;;;;5014335;28;20221;-69
2023/03/27 05:02:43;;;;;;;0.20;0.20;;;;;;;;;;5023645;28;20263;-68
2023/03/27 05:05:10;;;;;;;0.20;0.20;;;;;;;;;;5013540;28;20208;-70
2023/03/27 05:07:37;;;;;;;0.20;0.20;;;;;;;;;;5022573;28;20265;-69
2023/03/27 05:10:04;;;;;;;0.20;0.20;;;;;;;;;;5025905;28;20212;-69
2023/03/27 05:12:30;;;;;;;0.20;0.20;;;;;;;;;;5016365;28;20278;-70
2023/03/27 05:14:58;;;;;;;0.20;0.20;;;;;;;;;;5028019;28;20236;-70
2023/03/27 05:17:25;;;;;;;0.20;0.20;;;;;;;;;;5017259;28;20516;-70
2023/03/27 05:19:52;;;;;;;0.20;0.20;;;;;;;;;;5028576;28;20222;-69
2023/03/27 05:22:19;;;;;;;0.20;0.20;;;;;;;;;;5017225;28;20268;-70
2023/03/27 05:24:45;;;;;;;0.20;0.20;;;;;;;;;;5028549;28;20445;-68
2023/03/27 05:27:11;;;;;;;0.20;0.20;;;;;;;;;;5016992;28;20275;-70
2023/03/27 05:29:39;;;;;;;0.20;0.20;;;;;;;;;;5028472;28;20525;-68
2023/03/27 05:32:05;;;;;;;0.20;0.20;;;;;;;;;;5015911;28;20239;-71
2023/03/27 05:34:33;;;;;;;0.20;0.20;;;;;;;;;;5026918;28;20254;-68
2023/03/27 05:37:04;;;;;;;0.20;0.20;;;;;;;;;;5016074;28;20238;-69
2023/03/27 05:39:30;;;;;;;0.20;0.20;;;;;;;;;;5027136;28;20245;-69
2023/03/27 05:41:57;;;;;;;0.20;0.20;;;;;;;;;;5015879;28;20262;-69
2023/03/27 05:44:24;;;;;;;0.20;0.20;;;;;;;;;;5027459;28;20247;-69
2023/03/27 05:46:50;;;;;;;0.20;0.20;;;;;;;;;;5015853;28;20248;-68
2023/03/27 05:49:17;;;;;;;0.20;0.20;;;;;;;;;;5026696;28;20209;-69
2023/03/27 05:51:44;;;;;;;0.20;0.20;;;;;;;;;;5015781;28;20250;-68
2023/03/27 05:54:11;;;;;;;0.20;0.20;;;;;;;;;;5026713;28;20216;-68
2023/03/27 05:56:38;;;;;;;0.20;0.20;;;;;;;;;;5015686;28;20303;-69
2023/03/27 05:59:04;;;;;;;0.20;0.20;;;;;;;;;;5026982;28;20517;-69
2023/03/27 06:01:33;;;;;;;0.20;0.20;;;;;;;;;;5016773;28;20302;-69
2023/03/27 06:04:01;;;;;;;0.20;0.20;;;;;;;;;;5027485;28;20211;-69
2023/03/27 06:06:27;;;;;;;0.20;0.20;;;;;;;;;;5016692;28;20247;-69
2023/03/27 06:08:54;;;;;;;0.20;0.20;;;;;;;;;;5027445;28;20535;-69
2023/03/27 06:11:22;;;;;;;0.20;0.20;;;;;;;;;;5016399;28;20481;-69
2023/03/27 06:13:49;;;;;;;0.20;0.20;;;;;;;;;;5025927;28;20275;-69
2023/03/27 06:16:19;;;;;;;0.20;0.20;;;;;;;;;;5015699;28;20588;-68
2023/03/27 06:18:45;;;;;;;0.20;0.20;;;;;;;;;;5026362;28;20500;-69
2023/03/27 06:21:12;;;;;;;0.20;0.20;;;;;;;;;;5014815;28;20244;-69
2023/03/27 06:23:38;;;;;;;0.20;0.20;;;;;;;;;;5025879;28;20258;-69
2023/03/27 06:26:05;;;;;;;0.20;0.20;;;;;;;;;;5015667;28;20282;-69
2023/03/27 06:28:32;;;;;;;0.20;0.20;;;;;;;;;;5025944;28;20211;-71
2023/03/27 06:30:59;;;;;;;0.20;0.20;;;;;;;;;;5015411;28;20312;-69
2023/03/27 06:33:26;;;;;;;0.20;0.20;;;;;;;;;;5025540;28;20279;-69
2023/03/27 06:35:53;;;;;;;0.20;0.20;;;;;;;;;;5016136;28;20251;-69
2023/03/27 06:38:20;;;;;;;0.20;0.20;;;;;;;;;;5025587;28;20264;-69
2023/03/27 06:40:48;;;;;;;0.20;0.20;;;;;;;;;;5016225;28;20306;-69
2023/03/27 06:43:17;;;;;;;0.20;0.20;;;;;;;;;;5025223;28;20208;-69
2023/03/27 06:45:46;;;;;;;0.20;0.20;;;;;;;;;;5015922;28;20250;-69
2023/03/27 06:48:13;;;;;;;0.20;0.20;;;;;;;;;;5025301;28;20299;-69
2023/03/27 06:50:39;;;;;;;0.20;0.20;;;;;;;;;;5015869;28;20567;-69
2023/03/27 06:53:06;;;;;;;0.20;0.20;;;;;;;;;;5024854;28;20215;-69
2023/03/27 06:55:33;;;;;;;0.20;0.20;;;;;;;;;;5015715;28;20247;-70
2023/03/27 06:58:00;;;;;;;0.20;0.20;;;;;;;;;;5024821;28;20299;-69
2023/03/27 07:00:28;;;;;;;0.20;0.20;;;;;;;;;;5015412;28;20253;-69
2023/03/27 07:02:56;;;;;;;0.20;0.20;;;;;;;;;;5024479;28;20196;-69
2023/03/27 07:05:23;;;;;;;0.20;0.20;;;;;;;;;;5015496;28;20538;-71
2023/03/27 07:07:49;;;;;;;0.20;0.20;;;;;;;;;;5024729;28;20215;-69
2023/03/27 07:10:16;;;;;;;0.20;0.20;;;;;;;;;;5015279;28;20402;-69
2023/03/27 07:12:44;;;;;;;0.20;0.20;;;;;;;;;;5024099;28;20207;-69
2023/03/27 07:15:11;;;;;;;0.20;0.20;;;;;;;;;;5015190;28;20212;-69
2023/03/27 07:17:38;;;;;;;0.20;0.20;;;;;;;;;;5023943;28;20245;-69
2023/03/27 07:20:08;;;;;;;0.20;0.20;;;;;;;;;;5025487;28;20283;-69
2023/03/27 07:22:35;;;;;;;0.20;0.20;;;;;;;;;;4997650;28;20212;-69
2023/03/27 07:25:01;;;;;;;0.20;0.20;;;;;;;;;;5025339;28;20240;-69
2023/03/27 07:27:27;;;;;;;0.20;0.20;;;;;;;;;;5014070;28;20560;-68
2023/03/27 07:29:55;;;;;;;0.20;0.20;;;;;;;;;;5025361;28;20374;-69
2023/03/27 07:32:21;;;;;;;0.17;0.17;;;;;;;;;;5013942;28;20324;-67
2023/03/27 07:34:47;;;;;;;0.20;0.20;;;;;;;;;;5025347;28;20402;-69
2023/03/27 07:37:15;;;;;;;0.20;0.20;;;;;;;;;;5014039;28;20310;-69
2023/03/27 07:39:41;;;;;;;0.20;0.20;;;;;;;;;;5025211;28;20443;-71
2023/03/27 07:42:08;;;;;;;0.20;0.20;;;;;;;;;;5014207;28;20510;-70
2023/03/27 07:44:34;;;;;;;0.20;0.20;;;;;;;;;;5025198;28;20471;-74
2023/03/27 07:47:01;;;;;;;0.20;0.20;;;;;;;;;;5014097;28;20240;-70
2023/03/27 07:49:27;;;;;;;0.20;0.20;;;;;;;;;;5025358;28;20275;-72
2023/03/27 07:51:54;;;;;;;0.20;0.20;;;;;;;;;;5013987;28;20257;-72
2023/03/27 07:54:21;;;;;;;0.20;0.20;;;;;;;;;;5024594;28;20247;-72
2023/03/27 07:56:48;;;;;;;0.20;0.20;;;;;;;;;;5013917;28;20287;-72
2023/03/27 07:59:15;;;;;;;0.20;0.20;;;;;;;;;;5025132;28;20392;-72
2023/03/27 08:01:41;;;;;;;0.20;0.20;;;;;;;;;;5014327;28;20466;-70
2023/03/27 08:04:08;;;;;;;0.20;0.20;;;;;;;;;;5024471;28;20204;-71
2023/03/27 08:06:34;;;;;;;0.20;0.20;;;;;;;;;;5013910;28;20260;-71
2023/03/27 08:09:01;;;;;;;0.20;0.20;;;;;;;;;;5023998;28;20202;-71
2023/03/27 08:11:29;;;;;;;0.20;0.20;;;;;;;;;;5013666;28;20425;-72
2023/03/27 08:13:55;;;;;;;0.20;0.20;;;;;;;;;;5023776;28;20248;-71
2023/03/27 08:16:26;;;;;;;0.20;0.20;;;;;;;;;;5013614;28;20256;-72
2023/03/27 08:18:52;;;;;;;0.20;0.20;;;;;;;;;;5023941;28;20251;-71
2023/03/27 08:21:19;;;;;;;0.20;0.20;;;;;;;;;;5013627;28;20237;-72
2023/03/27 08:23:46;;;;;;;0.20;0.20;;;;;;;;;;5024430;28;20228;-72
2023/03/27 08:26:13;;;;;;;0.20;0.20;;;;;;;;;;5014416;28;20580;-71
2023/03/27 08:28:41;;;;;;;0.20;0.20;;;;;;;;;;5024377;28;20256;-70
2023/03/27 08:31:10;;;;;;;0.20;0.20;;;;;;;;;;5013994;28;20245;-70
2023/03/27 08:33:36;;;;;;;0.20;0.20;;;;;;;;;;5023787;28;20205;-70
2023/03/27 08:36:03;;;;;;;0.20;0.20;;;;;;;;;;5013546;28;20241;-70
2023/03/27 08:38:32;;;;;;;0.20;0.20;;;;;;;;;;5023619;28;20232;-69
2023/03/27 08:40:59;;;;;;;0.20;0.20;;;;;;;;;;5013385;28;20260;-70
2023/03/27 08:43:27;;;;;;;0.20;0.20;;;;;;;;;;5023160;28;20272;-71
2023/03/27 08:45:56;;;;;;;0.20;0.20;;;;;;;;;;5013554;28;20238;-71
2023/03/27 08:48:29;;;;;;;0.20;0.20;;;;;;;;;;5023720;28;20232;-71
2023/03/27 08:50:57;;;;;;;0.20;0.20;;;;;;;;;;5013769;28;20316;-71
2023/03/27 08:53:31;;;;;;;0.20;0.20;;;;;;;;;;5023179;28;20286;-71
2023/03/27 08:55:57;;;;;;;0.10;0.10;;;;;;;;;;5013363;28;20322;-71
2023/03/27 08:58:24;;;;;;;0.10;0.10;;;;;;;;;;5023097;28;20225;-71
2023/03/27 09:00:53;;;;;;;0.10;0.10;;;;;;;;;;5013233;28;20245;-72
2023/03/27 09:03:23;;;;;;;0.10;0.10;;;;;;;;;;5022889;28;20237;-72
2023/03/27 09:05:52;;;;;;;0.20;0.20;;;;;;;;;;5013264;28;20241;-72
2023/03/27 09:08:23;;;;;;;0.10;0.10;;;;;;;;;;5022939;28;20245;-71
2023/03/27 09:10:51;;;;;;;0.10;0.10;;;;;;;;;;5013341;28;20313;-72
2023/03/27 09:13:19;;;;;;;0.10;0.10;;;;;;;;;;5022750;28;20208;-72
2023/03/27 09:15:48;;;;;;;0.10;0.10;;;;;;;;;;5013166;28;20309;-72
2023/03/27 09:18:17;;;;;;;0.10;0.10;;;;;;;;;;5022757;28;20257;-72
2023/03/27 09:20:47;;;;;;;0.10;0.10;;;;;;;;;;5013718;28;20253;-72
2023/03/27 09:23:16;;;;;;;0.10;0.10;;;;;;;;;;5023496;28;20218;-71
2023/03/27 09:25:45;;;;;;;0.10;0.10;;;;;;;;;;5013796;28;20254;-71
2023/03/27 09:28:15;;;;;;;0.10;0.10;;;;;;;;;;5023309;28;20231;-71
2023/03/27 09:30:42;;;;;;;0.10;0.10;;;;;;;;;;5013076;28;20295;-71
2023/03/27 09:33:10;;;;;;;0.20;0.20;;;;;;;;;;5022488;28;20233;-71
2023/03/27 09:35:37;;;;;;;0.10;0.10;;;;;;;;;;5013033;28;20244;-71
2023/03/27 09:38:13;;;;;;;0.10;0.10;;;;;;;;;;5022588;28;20386;-71
2023/03/27 09:40:43;;;;;;;0.10;0.10;;;;;;;;;;5013222;28;20244;-72
2023/03/27 09:43:15;;;;;;;0.10;0.10;;;;;;;;;;5022589;28;20262;-72
2023/03/27 09:45:42;;;;;;;0.10;0.10;;;;;;;;;;5012861;28;20290;-72
2023/03/27 09:48:12;;;;;;;0.10;0.10;;;;;;;;;;5022426;28;20272;-72
2023/03/27 09:50:43;;;;;;;0.10;0.10;;;;;;;;;;5012980;28;20248;-71
2023/03/27 09:53:12;;;;;;;0.10;0.10;;;;;;;;;;5022415;28;20212;-72
2023/03/27 09:55:45;;;;;;;0.10;0.10;;;;;;;;;;5012929;28;20265;-72
2023/03/27 09:58:14;;;;;;;0.10;0.10;;;;;;;;;;5025612;28;20258;-72
2023/03/27 10:00:40;;;;;;;0.10;0.10;;;;;;;;;;5016260;28;20311;-69
2023/03/27 10:03:08;;;;;;;0.00;0.00;;;;;;;;;;5026108;28;20287;-72
2023/03/27 10:05:35;;;;;;;0.10;0.10;;;;;;;;;;5016528;28;20261;-73
2023/03/27 10:08:18;;;;;;;0.10;0.10;;;;;;;;;;5025893;28;20476;-72
2023/03/27 10:10:54;;;;;;;0.10;0.10;;;;;;;;;;5016183;28;20241;-72
2023/03/27 10:13:23;;;;;;;0.10;0.10;;;;;;;;;;5026559;28;20503;-72
2023/03/27 10:15:49;;;;;;;0.08;0.08;;;;;;;;;;5016314;28;20308;-72
2023/03/27 10:18:22;;;;;;;0.00;0.00;;;;;;;;;;5025844;28;20278;-72
2023/03/27 10:20:50;;;;;;;0.10;0.10;;;;;;;;;;5016190;28;20274;-71
2023/03/27 10:23:23;;;;;;;0.00;0.00;;;;;;;;;;5025844;28;20207;-72
2023/03/27 10:25:51;;;;;;;0.10;0.10;;;;;;;;;;5016204;28;20272;-72
2023/03/27 10:28:18;;;;;;;0.10;0.10;;;;;;;;;;5025610;28;20273;-72
2023/03/27 10:30:45;;;;;;;0.08;0.08;;;;;;;;;;5016061;28;20270;-72
2023/03/27 10:33:12;;;;;;;0.08;0.08;;;;;;;;;;5025581;28;20211;-72
2023/03/27 10:35:39;;;;;;;0.10;0.10;;;;;;;;;;5015629;28;20288;-72
2023/03/27 10:38:07;;;;;;;0.73;0.57;;;;;;;;;;5025248;28;20463;-72
2023/03/27 10:40:35;;;;;;;0.10;0.10;;;;;;;;;;5016027;28;20417;-71
2023/03/27 10:43:04;;;;;;;0.10;0.10;;;;;;;;;;5024961;28;20263;-70
2023/03/27 10:45:32;;;;;;;0.10;0.10;;;;;;;;;;5015775;28;20272;-70
2023/03/27 10:48:00;;;;;;;0.10;0.10;;;;;;;;;;5025068;28;20441;-70
2023/03/27 10:50:28;;;;;;;0.10;0.10;;;;;;;;;;5015305;28;20218;-71
2023/03/27 10:52:59;;;;;;;0.00;0.00;;;;;;;;;;5024915;28;20196;-71
2023/03/27 10:55:32;;;;;;;0.10;0.10;;;;;;;;;;5015521;28;20194;-71
2023/03/27 10:58:01;;;;;;;7.32;1.42;;;;;;;;;;5025191;28;20226;-70
2023/03/27 11:00:33;;;;;;;0.05;0.05;;;;;;;;;;5015365;28;20295;-70
2023/03/27 11:03:02;;;;;;;0.10;0.10;;;;;;;;;;5024557;28;20195;-70
2023/03/27 11:05:31;;;;;;;0.10;0.10;;;;;;;;;;5015414;28;20241;-70
2023/03/27 11:08:02;;;;;;;0.10;0.10;;;;;;;;;;5023972;28;20206;-70
2023/03/27 11:10:30;;;;;;;0.10;0.10;;;;;;;;;;5015465;28;20257;-68
2023/03/27 11:12:59;;;;;;;0.10;0.10;;;;;;;;;;5024447;28;20243;-68
2023/03/27 11:15:27;;;;;;;0.10;0.10;;;;;;;;;;5014880;28;20214;-68
2023/03/27 11:17:57;;;;;;;0.00;0.00;;;;;;;;;;5023995;28;20270;-68
2023/03/27 11:20:26;;;;;;;0.10;0.10;;;;;;;;;;5014845;28;20207;-68
2023/03/27 11:22:56;;;;;;;0.10;0.10;;;;;;;;;;5024165;28;20241;-68
2023/03/27 11:25:26;;;;;;;0.10;0.10;;;;;;;;;;5014947;28;20201;-68
2023/03/27 11:27:55;;;;;;;0.10;0.10;;;;;;;;;;5024143;28;20439;-68
2023/03/27 11:30:33;;;;;;;0.10;0.10;;;;;;;;;;5014854;28;20243;-68
2023/03/27 11:33:08;;;;;;;0.00;0.00;;;;;;;;;;5024203;28;20266;-68
2023/03/27 11:35:36;;;;;;;0.05;0.05;;;;;;;;;;5014477;28;20241;-68
2023/03/27 11:38:05;;;;;;;0.10;0.10;;;;;;;;;;5023972;28;20217;-69
2023/03/27 11:40:34;;;;;;;0.00;0.00;;;;;;;;;;5014429;28;20241;-68
2023/03/27 11:43:01;;;;;;;0.10;0.10;;;;;;;;;;5023918;28;20213;-68
2023/03/27 11:45:31;;;;;;;0.00;0.00;;;;;;;;;;5014512;28;20243;-69
2023/03/27 11:48:07;;;;;;;0.10;0.10;;;;;;;;;;5023746;28;20193;-69
2023/03/27 11:50:39;;;;;;;0.00;0.00;;;;;;;;;;5014641;28;20259;-68
2023/03/27 11:53:13;;;;;;;0.10;0.10;;;;;;;;;;5023869;28;20459;-68
2023/03/27 11:55:49;;;;;;;0.00;0.00;;;;;;;;;;5014507;28;20236;-67
2023/03/27 11:58:25;;;;;;;0.10;0.10;;;;;;;;;;5024290;28;20240;-67
2023/03/27 12:00:55;;;;;;;0.10;0.10;;;;;;;;;;5014337;28;20388;-68
2023/03/27 12:03:47;;;;;;;0.00;0.00;;;;;;;;;;5023927;28;20229;-69
2023/03/27 12:06:19;;;;;;;0.10;0.10;;;;;;;;;;5014180;28;20493;-65
2023/03/27 12:08:54;;;;;;;0.10;0.10;;;;;;;;;;5024610;28;20205;-68
2023/03/27 12:11:21;;;;;;;0.00;0.00;;;;;;;;;;5013449;28;20276;-68
2023/03/27 12:13:56;;;;;;;0.10;0.10;;;;;;;;;;5023775;28;20233;-66
2023/03/27 12:16:43;;;;;;;0.10;0.10;;;;;;;;;;5013447;28;20309;-68
2023/03/27 12:19:21;;;;;;;0.10;0.10;;;;;;;;;;5018220;28;20229;-66
2023/03/27 12:21:57;;;;;;;0.00;0.00;;;;;;;;;;5013139;28;20508;-67
2023/03/27 12:24:33;;;;;;;0.10;0.10;;;;;;;;;;5023822;28;20209;-67
2023/03/27 12:27:23;;;;;;;0.10;0.10;;;;;;;;;;5012956;28;20240;-67
2023/03/27 12:30:03;;;;;;;0.10;0.10;;;;;;;;;;5024230;28;20233;-67
2023/03/27 12:32:58;;;;;;;3.47;1.38;;;;;;;;;;5012753;28;20256;-67
2023/03/27 12:35:28;;;;;;;0.10;0.10;;;;;;;;;;4978640;28;20223;-67
2023/03/27 12:37:58;;;;;;;0.10;0.10;;;;;;;;;;5022714;28;20242;-67
2023/03/27 12:40:26;;;;;;;0.10;0.10;;;;;;;;;;5013601;28;20661;-67
2023/03/27 12:42:55;;;;;;;0.10;0.10;;;;;;;;;;5022981;28;20406;-67
2023/03/27 12:45:23;;;;;;;0.00;0.00;;;;;;;;;;5013427;28;20215;-68
2023/03/27 12:48:08;;;;;;;0.08;0.08;;;;;;;;;;5022624;28;20264;-68
2023/03/27 12:50:40;;;;;;;0.10;0.10;;;;;;;;;;5013266;28;20277;-67
2023/03/27 12:53:18;;;;;;;0.10;0.10;;;;;;;;;;5022805;28;20214;-67
2023/03/27 12:55:44;;;;;;;0.10;0.10;;;;;;;;;;5013395;28;20500;-67
2023/03/27 12:58:12;;;;;;;0.00;0.00;;;;;;;;;;5022987;28;20216;-67
2023/03/27 13:00:39;;;;;;;0.10;0.10;;;;;;;;;;5013253;28;20280;-67
2023/03/27 13:03:27;;;;;;;0.00;0.00;;;;;;;;;;5022691;28;20238;-67
2023/03/27 13:06:23;;;;;;;0.10;0.10;;;;;;;;;;5008238;28;20241;-72
2023/03/27 13:09:08;;;;;;;0.15;0.15;;;;;;;;;;4950016;29;20454;-67
2023/03/27 13:11:39;;;;;;;0.10;0.10;;;;;;;;;;5004263;28;20281;-67
2023/03/27 13:14:24;;;;;;;0.10;0.10;;;;;;;;;;5023875;28;20228;-67
2023/03/27 13:17:01;;;;;;;0.10;0.10;;;;;;;;;;4984046;28;20249;-67
2023/03/27 13:19:36;;;;;;;0.10;0.10;;;;;;;;;;5024694;28;20295;-67
2023/03/27 13:22:12;;;;;;;0.10;0.10;;;;;;;;;;5012830;28;20243;-67
2023/03/27 13:24:55;;;;;;;0.10;0.10;;;;;;;;;;5025701;28;20211;-80
2023/03/27 13:27:29;;;;;;;0.10;0.10;;;;;;;;;;5012779;28;20461;-81
2023/03/27 13:29:56;;;;;;;0.10;0.10;;;;;;;;;;5024228;28;20419;-81
2023/03/27 13:32:30;;;;;;;0.10;0.10;;;;;;;;;;5015934;28;20264;-81
2023/03/27 13:35:03;;;;;;;0.10;0.10;;;;;;;;;;5027343;28;20208;-81
2023/03/27 13:37:56;;;;;;;0.10;0.10;;;;;;;;;;5015956;28;20248;-80
2023/03/27 13:40:27;;;;;;;0.10;0.10;;;;;;;;;;5002862;28;20465;-80
2023/03/27 13:42:56;;;;;;;0.10;0.10;;;;;;;;;;5025965;28;20196;-80
2023/03/27 13:45:25;;;;;;;0.10;0.10;;;;;;;;;;5017429;28;20305;-80
2023/03/27 13:48:00;;;;;;;0.10;0.10;;;;;;;;;;5026363;28;20195;-81
2023/03/27 13:50:40;;;;;;;0.10;0.10;;;;;;;;;;5017390;28;20189;-81
2023/03/27 13:53:21;;;;;;;0.10;0.10;;;;;;;;;;5026461;28;20272;-79
2023/03/27 13:55:54;;;;;;;0.10;0.10;;;;;;;;;;5014168;28;20421;-76
2023/03/27 13:58:31;;;;;;;0.10;0.10;;;;;;;;;;5026446;28;20426;-78
2023/03/27 14:01:02;;;;;;;0.10;0.10;;;;;;;;;;5016387;28;20296;-77
2023/03/27 14:03:39;;;;;;;0.10;0.10;;;;;;;;;;5026356;28;20229;-78
2023/03/27 14:06:19;;;;;;;0.10;0.10;;;;;;;;;;5016468;28;20252;-78
2023/03/27 14:08:48;;;;;;;0.10;0.10;;;;;;;;;;5026426;28;20251;-76
2023/03/27 14:11:30;;;;;;;0.10;0.10;;;;;;;;;;5015820;28;20241;-77
2023/03/27 14:14:05;;;;;;;0.10;0.10;;;;;;;;;;5026823;28;20213;-77
2023/03/27 14:16:51;;;;;;;0.10;0.10;;;;;;;;;;5016537;28;20715;-77
2023/03/27 14:19:26;;;;;;;0.10;0.10;;;;;;;;;;5026635;28;20406;-76
2023/03/27 14:21:55;;;;;;;0.10;0.10;;;;;;;;;;5015855;28;20634;-76
2023/03/27 14:24:29;;;;;;;0.10;0.10;;;;;;;;;;5026378;28;20288;-76
2023/03/27 14:26:57;;;;;;;0.10;0.10;;;;;;;;;;5014987;28;20241;-77
2023/03/27 14:29:23;;;;;;;0.10;0.10;;;;;;;;;;5026142;28;20211;-76
2023/03/27 14:31:55;;;;;;;0.10;0.10;;;;;;;;;;5014869;28;20241;-77
2023/03/27 14:34:25;;;;;;;0.10;0.10;;;;;;;;;;5026081;28;20213;-77
2023/03/27 14:36:51;;;;;;;0.10;0.10;;;;;;;;;;5014901;28;20314;-77
2023/03/27 14:39:19;;;;;;;0.10;0.10;;;;;;;;;;5025745;28;20229;-78
2023/03/27 14:41:46;;;;;;;0.10;0.10;;;;;;;;;;5014117;28;20464;-77
2023/03/27 14:44:13;;;;;;;0.10;0.10;;;;;;;;;;5025846;28;20210;-76
2023/03/27 14:46:40;;;;;;;0.10;0.10;;;;;;;;;;5014860;28;20307;-77
2023/03/27 14:49:09;;;;;;;0.20;0.20;;;;;;;;;;5025603;28;20277;-77
2023/03/27 14:51:40;;;;;;;0.10;0.10;;;;;;;;;;5015354;28;20246;-77
2023/03/27 14:54:09;;;;;;;0.10;0.10;;;;;;;;;;5025475;28;20211;-77
2023/03/27 14:56:40;;;;;;;0.10;0.10;;;;;;;;;;5014645;28;20266;-77
2023/03/27 14:59:09;;;;;;;0.10;0.10;;;;;;;;;;5025276;28;20236;-76